Blanca, Colorado
Current Conditions -  °F | °C
As of 4:52 PM on Sunday 25 Jan 2015 (Local Time) from KALS Reporting Station
Clear Clear  
Wind Chill: 38°   Ceiling: Unl
Heat Index: 42°   Visibility: 10mi
Dew Point: 19°   Wind: 6mph
Humidity: 40%   Direction: 20°NNE
Pressure: 30.29"   Gusts: NA
Location:  37.44°N, 105.52°W
Report Text: KALS 252352Z AUTO 02005KT 10SM CLR 06/M07 A3029 RMK AO2 SLP282 T00561072 10094 20033 53003
Loading
Personal Weather Stations






























Interactive Weather Map New forecast layout! Learn more

10-Day Weather Forecast

Advertisements
Track Severe Weather on mobile